createdAt,value
2019-04-26T17:52:06.714Z,4.30
2019-04-26T17:54:46.327Z,3.93
2019-04-26T17:57:08.863Z,3.77
2019-04-26T17:59:45.249Z,4.30
2019-04-26T18:02:20.579Z,4.20
2019-04-26T18:04:43.507Z,4.67
2019-04-26T18:07:37.545Z,4.80
2019-04-26T18:09:46.839Z,5.00
2019-04-26T18:12:16.477Z,4.40
2019-04-26T18:14:45.946Z,5.13
2019-04-26T18:17:24.963Z,5.10
2019-04-26T18:20:05.115Z,5.10
2019-04-26T18:22:42.808Z,5.57
2019-04-26T18:25:13.064Z,5.90
2019-04-26T18:27:43.631Z,5.73
2019-04-26T18:30:14.362Z,5.73
2019-04-26T18:32:47.679Z,6.13
2019-04-26T18:35:16.869Z,6.20
2019-04-26T18:37:46.469Z,6.17
2019-04-26T18:40:16.048Z,5.70
2019-04-26T18:42:45.487Z,6.03
2019-04-26T18:45:21.233Z,6.17
2019-04-26T18:47:46.200Z,6.03
2019-04-26T18:50:16.170Z,6.30
2019-04-26T18:52:59.894Z,6.40
2019-04-26T18:55:31.147Z,6.40
2019-04-26T18:58:03.376Z,6.80
2019-04-26T19:00:36.262Z,6.20
2019-04-26T19:03:05.843Z,6.40
2019-04-26T19:05:35.524Z,6.47
2019-04-26T19:08:07.538Z,6.47
2019-04-26T19:10:38.754Z,6.30
2019-04-26T19:13:25.279Z,5.80
2019-04-26T19:16:01.202Z,6.30
2019-04-26T19:18:47.143Z,6.47
2019-04-26T19:21:38.945Z,6.47
2019-04-26T19:24:11.670Z,6.50
2019-04-26T19:26:38.083Z,6.60
2019-04-26T19:29:16.363Z,7.20
2019-04-26T19:31:41.270Z,6.47
2019-04-26T19:34:11.673Z,6.90
2019-04-26T19:36:42.078Z,7.07
2019-04-26T19:39:12.111Z,8.10
2019-04-26T19:41:42.028Z,8.07
2019-04-26T19:44:14.787Z,7.93
2019-04-26T19:47:03.258Z,9.10
2019-04-26T19:49:52.363Z,8.67
2019-04-26T19:52:23.193Z,9.80
2019-04-26T19:54:54.348Z,9.07
2019-04-26T19:57:42.690Z,9.17
2019-04-26T20:00:13.253Z,7.60
2019-04-26T20:02:42.760Z,8.47
2019-04-26T20:05:12.382Z,8.40
2019-04-26T20:07:41.808Z,8.20
2019-04-26T20:10:12.861Z,8.80
2019-04-26T20:12:42.402Z,8.93
2019-04-26T20:15:25.147Z,9.37
2019-04-26T20:17:43.025Z,8.83
2019-04-26T20:20:20.179Z,9.37
2019-04-26T20:22:43.712Z,9.57
2019-04-26T20:25:13.241Z,9.40
2019-04-26T20:27:42.672Z,10.33
2019-04-26T20:30:32.235Z,9.73
2019-04-26T20:33:01.851Z,11.17
2019-04-26T20:35:31.901Z,10.30
2019-04-26T20:38:04.654Z,10.77
2019-04-26T20:40:32.537Z,10.60
2019-04-26T20:43:05.844Z,10.27
2019-04-26T20:45:41.381Z,10.73
2019-04-26T20:48:04.290Z,11.20
2019-04-26T20:50:36.773Z,11.83
2019-04-26T20:53:05.981Z,12.40
2019-04-26T20:55:37.064Z,15.30
2019-04-26T20:58:08.612Z,15.67
2019-04-26T21:00:38.105Z,18.77
2019-04-26T21:03:20.131Z,21.17
2019-04-26T21:05:46.130Z,25.13
2019-04-26T21:08:09.960Z,26.93
2019-04-26T21:10:39.541Z,29.77
2019-04-26T21:13:09.417Z,31.07
2019-04-26T21:15:51.933Z,32.07
2019-04-26T21:18:10.076Z,33.23
2019-04-26T21:20:39.508Z,33.17
2019-04-26T21:23:09.273Z,33.50
2019-04-26T21:25:57.019Z,35.80
2019-04-26T21:28:28.232Z,37.83
2019-04-26T21:31:08.684Z,37.53
2019-04-26T21:33:49.177Z,39.13
2019-04-26T21:36:26.338Z,38.10
2019-04-26T21:39:07.490Z,39.57
2019-04-26T21:41:40.410Z,39.87
2019-04-26T21:44:12.340Z,39.93
2019-04-26T21:46:40.959Z,41.63
2019-04-26T21:49:17.070Z,39.87
2019-04-26T21:51:44.633Z,41.03
2019-04-26T21:54:14.448Z,41.70
2019-04-26T21:56:48.566Z,41.67
2019-04-26T21:59:15.029Z,42.10
2019-04-26T22:01:48.179Z,44.17
2019-04-26T22:04:15.699Z,42.60
2019-04-26T22:06:46.627Z,41.80
2019-04-26T22:09:21.633Z,42.90
2019-04-26T22:11:53.997Z,41.57
2019-04-26T22:14:27.294Z,40.10
2019-04-26T22:17:02.212Z,38.07
2019-04-26T22:19:35.340Z,37.30
2019-04-26T22:22:09.372Z,36.20
2019-04-26T22:24:40.453Z,33.13
2019-04-26T22:27:09.906Z,34.23
2019-04-26T22:29:39.379Z,32.73
2019-04-26T22:32:11.502Z,32.80
2019-04-26T22:34:42.700Z,31.77
2019-04-26T22:37:12.905Z,31.57
2019-04-26T22:39:44.410Z,32.13
2019-04-26T22:42:14.808Z,31.13
2019-04-26T22:44:55.041Z,31.77
2019-04-26T22:47:26.196Z,29.83
2019-04-26T22:49:55.765Z,29.40
2019-04-26T22:52:25.310Z,28.20
2019-04-26T22:54:55.270Z,28.13
2019-04-26T22:57:24.707Z,25.10
2019-04-26T22:59:54.124Z,26.53
2019-04-26T23:02:27.592Z,26.37
2019-04-26T23:04:56.097Z,24.97
2019-04-26T23:07:26.507Z,24.43
2019-04-26T23:09:55.951Z,23.47
2019-04-26T23:12:28.255Z,23.97
2019-04-26T23:14:59.721Z,23.97
2019-04-26T23:17:43.947Z,23.90
2019-04-26T23:20:16.825Z,23.23
2019-04-26T23:22:46.299Z,23.50
2019-04-26T23:25:15.811Z,23.53
2019-04-26T23:27:45.209Z,23.50
2019-04-26T23:30:16.171Z,23.30
2019-04-26T23:32:48.562Z,24.70
2019-04-26T23:35:16.799Z,23.73
2019-04-26T23:37:46.204Z,23.53
2019-04-26T23:40:15.626Z,23.43
2019-04-26T23:42:47.553Z,23.73
2019-04-26T23:45:16.329Z,23.20
2019-04-26T23:47:45.777Z,23.57
2019-04-26T23:50:15.228Z,26.17
2019-04-26T23:52:49.209Z,24.13
2019-04-26T23:55:15.835Z,26.30
2019-04-26T23:57:45.304Z,26.97
